sensor_id;sensor_type;location;lat;lon;timestamp;P1;durP1;ratioP1;P2;durP2;ratioP2
58982;SDS011;44771;49.982;8.560;2023-04-26T00:02:36;16.70;;;15.18;;
58982;SDS011;44771;49.982;8.560;2023-04-26T00:07:38;17.33;;;15.95;;
58982;SDS011;44771;49.982;8.560;2023-04-26T00:12:41;18.80;;;17.25;;
58982;SDS011;44771;49.982;8.560;2023-04-26T00:17:43;17.42;;;15.80;;
58982;SDS011;44771;49.982;8.560;2023-04-26T00:22:45;17.23;;;15.98;;
58982;SDS011;44771;49.982;8.560;2023-04-26T00:27:48;17.50;;;16.40;;
58982;SDS011;44771;49.982;8.560;2023-04-26T00:32:49;15.90;;;14.65;;
58982;SDS011;44771;49.982;8.560;2023-04-26T00:37:51;18.00;;;16.45;;
58982;SDS011;44771;49.982;8.560;2023-04-26T00:42:57;17.85;;;16.62;;
58982;SDS011;44771;49.982;8.560;2023-04-26T00:47:59;15.40;;;14.30;;
58982;SDS011;44771;49.982;8.560;2023-04-26T00:53:02;18.27;;;16.85;;
58982;SDS011;44771;49.982;8.560;2023-04-26T00:58:06;16.87;;;15.82;;
58982;SDS011;44771;49.982;8.560;2023-04-26T01:03:08;18.42;;;16.75;;
58982;SDS011;44771;49.982;8.560;2023-04-26T01:08:11;17.33;;;15.93;;
58982;SDS011;44771;49.982;8.560;2023-04-26T01:13:14;17.92;;;16.55;;
58982;SDS011;44771;49.982;8.560;2023-04-26T01:18:16;18.02;;;16.65;;
58982;SDS011;44771;49.982;8.560;2023-04-26T01:23:19;17.37;;;15.93;;
58982;SDS011;44771;49.982;8.560;2023-04-26T01:28:21;17.37;;;16.08;;
58982;SDS011;44771;49.982;8.560;2023-04-26T01:33:23;18.55;;;17.35;;
58982;SDS011;44771;49.982;8.560;2023-04-26T01:38:26;15.98;;;14.77;;
58982;SDS011;44771;49.982;8.560;2023-04-26T01:43:27;16.27;;;14.98;;
58982;SDS011;44771;49.982;8.560;2023-04-26T01:48:29;20.92;;;16.37;;
58982;SDS011;44771;49.982;8.560;2023-04-26T01:53:32;18.35;;;16.52;;
58982;SDS011;44771;49.982;8.560;2023-04-26T01:58:34;17.58;;;16.17;;
58982;SDS011;44771;49.982;8.560;2023-04-26T02:03:36;16.75;;;15.55;;
58982;SDS011;44771;49.982;8.560;2023-04-26T02:08:39;18.23;;;16.83;;
58982;SDS011;44771;49.982;8.560;2023-04-26T02:13:41;17.45;;;15.95;;
58982;SDS011;44771;49.982;8.560;2023-04-26T02:18:43;18.33;;;16.92;;
58982;SDS011;44771;49.982;8.560;2023-04-26T02:23:46;17.75;;;16.52;;
58982;SDS011;44771;49.982;8.560;2023-04-26T02:28:48;16.92;;;15.80;;
58982;SDS011;44771;49.982;8.560;2023-04-26T02:33:50;18.60;;;17.20;;
58982;SDS011;44771;49.982;8.560;2023-04-26T02:38:53;18.23;;;16.75;;
58982;SDS011;44771;49.982;8.560;2023-04-26T02:43:55;20.12;;;18.37;;
58982;SDS011;44771;49.982;8.560;2023-04-26T02:48:56;18.62;;;17.23;;
58982;SDS011;44771;49.982;8.560;2023-04-26T02:53:59;18.83;;;17.20;;
58982;SDS011;44771;49.982;8.560;2023-04-26T02:59:01;19.58;;;18.20;;
58982;SDS011;44771;49.982;8.560;2023-04-26T03:04:03;18.23;;;17.00;;
58982;SDS011;44771;49.982;8.560;2023-04-26T03:09:06;18.55;;;16.83;;
58982;SDS011;44771;49.982;8.560;2023-04-26T03:14:08;17.42;;;16.00;;
58982;SDS011;44771;49.982;8.560;2023-04-26T03:19:10;18.58;;;17.30;;
58982;SDS011;44771;49.982;8.560;2023-04-26T03:24:13;20.20;;;18.73;;
58982;SDS011;44771;49.982;8.560;2023-04-26T03:29:15;19.35;;;17.17;;
58982;SDS011;44771;49.982;8.560;2023-04-26T03:34:17;19.35;;;17.95;;
58982;SDS011;44771;49.982;8.560;2023-04-26T03:39:20;16.70;;;15.35;;
58982;SDS011;44771;49.982;8.560;2023-04-26T03:44:22;17.42;;;16.12;;
58982;SDS011;44771;49.982;8.560;2023-04-26T03:49:23;18.33;;;17.02;;
58982;SDS011;44771;49.982;8.560;2023-04-26T03:54:27;18.90;;;17.60;;
58982;SDS011;44771;49.982;8.560;2023-04-26T03:59:28;18.15;;;16.75;;
58982;SDS011;44771;49.982;8.560;2023-04-26T04:04:30;18.15;;;16.45;;
58982;SDS011;44771;49.982;8.560;2023-04-26T04:09:34;16.83;;;15.40;;
58982;SDS011;44771;49.982;8.560;2023-04-26T04:14:35;19.77;;;18.17;;
58982;SDS011;44771;49.982;8.560;2023-04-26T04:19:37;20.52;;;18.80;;
58982;SDS011;44771;49.982;8.560;2023-04-26T04:24:40;20.00;;;18.15;;
58982;SDS011;44771;49.982;8.560;2023-04-26T04:29:42;18.52;;;17.02;;
58982;SDS011;44771;49.982;8.560;2023-04-26T04:34:44;18.85;;;17.33;;
58982;SDS011;44771;49.982;8.560;2023-04-26T04:39:49;19.73;;;18.20;;
58982;SDS011;44771;49.982;8.560;2023-04-26T04:44:52;19.45;;;17.08;;
58982;SDS011;44771;49.982;8.560;2023-04-26T04:49:53;19.27;;;17.67;;
58982;SDS011;44771;49.982;8.560;2023-04-26T04:54:57;19.08;;;17.48;;
58982;SDS011;44771;49.982;8.560;2023-04-26T04:59:58;19.20;;;17.60;;
58982;SDS011;44771;49.982;8.560;2023-04-26T05:05:00;20.50;;;18.70;;
58982;SDS011;44771;49.982;8.560;2023-04-26T05:10:04;20.98;;;18.87;;
58982;SDS011;44771;49.982;8.560;2023-04-26T05:15:06;19.30;;;17.55;;
58982;SDS011;44771;49.982;8.560;2023-04-26T05:20:09;18.90;;;17.10;;
58982;SDS011;44771;49.982;8.560;2023-04-26T05:25:12;22.30;;;19.58;;
58982;SDS011;44771;49.982;8.560;2023-04-26T05:30:14;23.02;;;18.75;;
58982;SDS011;44771;49.982;8.560;2023-04-26T05:35:16;21.58;;;19.33;;
58982;SDS011;44771;49.982;8.560;2023-04-26T05:40:19;22.58;;;19.02;;
58982;SDS011;44771;49.982;8.560;2023-04-26T05:45:21;21.05;;;19.02;;
58982;SDS011;44771;49.982;8.560;2023-04-26T05:50:26;22.87;;;20.60;;
58982;SDS011;44771;49.982;8.560;2023-04-26T05:55:29;22.77;;;20.50;;
58982;SDS011;44771;49.982;8.560;2023-04-26T06:00:30;20.90;;;18.58;;
58982;SDS011;44771;49.982;8.560;2023-04-26T06:05:32;24.20;;;19.75;;
58982;SDS011;44771;49.982;8.560;2023-04-26T06:10:37;23.95;;;19.00;;
58982;SDS011;44771;49.982;8.560;2023-04-26T06:15:39;22.58;;;20.23;;
58982;SDS011;44771;49.982;8.560;2023-04-26T06:25:47;26.33;;;19.62;;
58982;SDS011;44771;49.982;8.560;2023-04-26T06:30:49;25.12;;;19.02;;
58982;SDS011;44771;49.982;8.560;2023-04-26T06:35:50;22.55;;;18.25;;
58982;SDS011;44771;49.982;8.560;2023-04-26T06:40:53;21.75;;;18.77;;
58982;SDS011;44771;49.982;8.560;2023-04-26T06:45:55;24.37;;;19.70;;
58982;SDS011;44771;49.982;8.560;2023-04-26T06:50:57;24.55;;;18.83;;
58982;SDS011;44771;49.982;8.560;2023-04-26T06:56:00;22.00;;;20.05;;
58982;SDS011;44771;49.982;8.560;2023-04-26T07:01:02;26.35;;;19.10;;
58982;SDS011;44771;49.982;8.560;2023-04-26T07:06:04;28.15;;;18.60;;
58982;SDS011;44771;49.982;8.560;2023-04-26T07:11:09;22.08;;;19.08;;
58982;SDS011;44771;49.982;8.560;2023-04-26T07:16:12;20.50;;;17.25;;
58982;SDS011;44771;49.982;8.560;2023-04-26T07:21:14;19.17;;;17.17;;
58982;SDS011;44771;49.982;8.560;2023-04-26T07:26:17;21.33;;;17.33;;
58982;SDS011;44771;49.982;8.560;2023-04-26T07:31:19;19.35;;;16.87;;
58982;SDS011;44771;49.982;8.560;2023-04-26T07:36:21;16.25;;;14.55;;
58982;SDS011;44771;49.982;8.560;2023-04-26T07:41:26;17.23;;;15.45;;
58982;SDS011;44771;49.982;8.560;2023-04-26T07:46:28;18.20;;;16.40;;
58982;SDS011;44771;49.982;8.560;2023-04-26T07:51:30;16.50;;;15.05;;
58982;SDS011;44771;49.982;8.560;2023-04-26T07:56:34;17.12;;;15.43;;
58982;SDS011;44771;49.982;8.560;2023-04-26T08:01:35;16.25;;;14.57;;
58982;SDS011;44771;49.982;8.560;2023-04-26T08:06:37;17.37;;;14.25;;
58982;SDS011;44771;49.982;8.560;2023-04-26T08:11:40;15.85;;;14.55;;
58982;SDS011;44771;49.982;8.560;2023-04-26T08:16:42;16.37;;;13.73;;
58982;SDS011;44771;49.982;8.560;2023-04-26T08:21:44;16.05;;;14.63;;
58982;SDS011;44771;49.982;8.560;2023-04-26T08:26:47;14.45;;;13.38;;
58982;SDS011;44771;49.982;8.560;2023-04-26T08:31:49;14.50;;;12.90;;
58982;SDS011;44771;49.982;8.560;2023-04-26T08:36:51;14.25;;;12.82;;
58982;SDS011;44771;49.982;8.560;2023-04-26T08:41:54;14.57;;;12.85;;
58982;SDS011;44771;49.982;8.560;2023-04-26T08:47:05;14.30;;;13.07;;
58982;SDS011;44771;49.982;8.560;2023-04-26T08:52:11;14.70;;;13.50;;
58982;SDS011;44771;49.982;8.560;2023-04-26T08:57:15;17.98;;;13.88;;
58982;SDS011;44771;49.982;8.560;2023-04-26T09:02:18;17.50;;;14.17;;
58982;SDS011;44771;49.982;8.560;2023-04-26T09:07:24;16.10;;;14.07;;
58982;SDS011;44771;49.982;8.560;2023-04-26T09:12:32;19.27;;;14.18;;
58982;SDS011;44771;49.982;8.560;2023-04-26T09:17:34;19.17;;;14.05;;
58982;SDS011;44771;49.982;8.560;2023-04-26T09:22:37;15.38;;;13.75;;
58982;SDS011;44771;49.982;8.560;2023-04-26T09:27:42;18.85;;;13.75;;
58982;SDS011;44771;49.982;8.560;2023-04-26T09:32:45;15.73;;;14.32;;
58982;SDS011;44771;49.982;8.560;2023-04-26T09:37:55;15.00;;;13.27;;
58982;SDS011;44771;49.982;8.560;2023-04-26T09:48:11;13.20;;;12.18;;
58982;SDS011;44771;49.982;8.560;2023-04-26T09:53:27;14.38;;;13.10;;
58982;SDS011;44771;49.982;8.560;2023-04-26T09:58:31;14.32;;;12.75;;
58982;SDS011;44771;49.982;8.560;2023-04-26T10:03:33;12.93;;;11.20;;
58982;SDS011;44771;49.982;8.560;2023-04-26T10:08:36;16.42;;;12.73;;
58982;SDS011;44771;49.982;8.560;2023-04-26T10:13:40;13.05;;;12.15;;
58982;SDS011;44771;49.982;8.560;2023-04-26T10:18:42;13.90;;;12.90;;
58982;SDS011;44771;49.982;8.560;2023-04-26T10:23:44;12.52;;;11.50;;
58982;SDS011;44771;49.982;8.560;2023-04-26T10:28:54;13.70;;;12.43;;
58982;SDS011;44771;49.982;8.560;2023-04-26T10:39:19;14.20;;;13.15;;
58982;SDS011;44771;49.982;8.560;2023-04-26T10:44:39;14.18;;;12.88;;
58982;SDS011;44771;49.982;8.560;2023-04-26T10:49:44;13.70;;;12.30;;
58982;SDS011;44771;49.982;8.560;2023-04-26T10:54:50;13.30;;;12.18;;
58982;SDS011;44771;49.982;8.560;2023-04-26T11:05:32;12.60;;;11.70;;
58982;SDS011;44771;49.982;8.560;2023-04-26T11:10:38;14.07;;;12.63;;
58982;SDS011;44771;49.982;8.560;2023-04-26T11:20:43;13.25;;;12.07;;
58982;SDS011;44771;49.982;8.560;2023-04-26T11:25:45;16.30;;;13.43;;
58982;SDS011;44771;49.982;8.560;2023-04-26T11:30:48;14.32;;;12.32;;
58982;SDS011;44771;49.982;8.560;2023-04-26T11:35:51;13.25;;;11.95;;
58982;SDS011;44771;49.982;8.560;2023-04-26T11:40:54;15.40;;;13.98;;
58982;SDS011;44771;49.982;8.560;2023-04-26T11:45:58;13.98;;;13.00;;
58982;SDS011;44771;49.982;8.560;2023-04-26T11:51:01;12.93;;;11.43;;
58982;SDS011;44771;49.982;8.560;2023-04-26T11:56:04;12.15;;;11.12;;
58982;SDS011;44771;49.982;8.560;2023-04-26T12:01:20;13.50;;;12.32;;
58982;SDS011;44771;49.982;8.560;2023-04-26T12:06:28;13.48;;;12.45;;
58982;SDS011;44771;49.982;8.560;2023-04-26T12:11:31;13.38;;;12.25;;
58982;SDS011;44771;49.982;8.560;2023-04-26T12:16:35;13.75;;;12.55;;
58982;SDS011;44771;49.982;8.560;2023-04-26T12:21:40;14.25;;;13.27;;
58982;SDS011;44771;49.982;8.560;2023-04-26T12:26:43;14.30;;;12.90;;
58982;SDS011;44771;49.982;8.560;2023-04-26T12:31:46;15.25;;;14.15;;
58982;SDS011;44771;49.982;8.560;2023-04-26T12:36:48;13.25;;;11.95;;
58982;SDS011;44771;49.982;8.560;2023-04-26T12:41:50;13.50;;;12.27;;
58982;SDS011;44771;49.982;8.560;2023-04-26T12:46:53;14.30;;;13.30;;
58982;SDS011;44771;49.982;8.560;2023-04-26T12:51:55;18.23;;;13.38;;
58982;SDS011;44771;49.982;8.560;2023-04-26T12:56:56;12.30;;;11.05;;
58982;SDS011;44771;49.982;8.560;2023-04-26T13:02:00;13.77;;;12.77;;
58982;SDS011;44771;49.982;8.560;2023-04-26T13:07:02;15.00;;;13.65;;
58982;SDS011;44771;49.982;8.560;2023-04-26T13:12:04;13.43;;;12.30;;
58982;SDS011;44771;49.982;8.560;2023-04-26T13:17:07;13.25;;;11.95;;
58982;SDS011;44771;49.982;8.560;2023-04-26T13:22:09;16.87;;;12.82;;
58982;SDS011;44771;49.982;8.560;2023-04-26T13:27:11;14.00;;;12.68;;
58982;SDS011;44771;49.982;8.560;2023-04-26T13:32:15;13.65;;;12.35;;
58982;SDS011;44771;49.982;8.560;2023-04-26T13:37:16;14.02;;;12.48;;
58982;SDS011;44771;49.982;8.560;2023-04-26T13:42:18;14.95;;;13.48;;
58982;SDS011;44771;49.982;8.560;2023-04-26T13:47:24;14.50;;;13.23;;
58982;SDS011;44771;49.982;8.560;2023-04-26T13:52:26;14.23;;;12.98;;
58982;SDS011;44771;49.982;8.560;2023-04-26T13:57:28;12.02;;;10.77;;
58982;SDS011;44771;49.982;8.560;2023-04-26T14:02:31;13.75;;;12.37;;
58982;SDS011;44771;49.982;8.560;2023-04-26T14:07:33;13.25;;;12.02;;
58982;SDS011;44771;49.982;8.560;2023-04-26T14:12:35;15.15;;;12.48;;
58982;SDS011;44771;49.982;8.560;2023-04-26T14:17:38;12.10;;;11.20;;
58982;SDS011;44771;49.982;8.560;2023-04-26T14:22:40;13.82;;;12.50;;
58982;SDS011;44771;49.982;8.560;2023-04-26T14:27:42;14.60;;;13.18;;
58982;SDS011;44771;49.982;8.560;2023-04-26T14:32:45;12.77;;;11.35;;
58982;SDS011;44771;49.982;8.560;2023-04-26T14:37:46;13.00;;;11.75;;
58982;SDS011;44771;49.982;8.560;2023-04-26T14:42:48;13.50;;;12.32;;
58982;SDS011;44771;49.982;8.560;2023-04-26T14:47:51;12.25;;;11.15;;
58982;SDS011;44771;49.982;8.560;2023-04-26T14:52:53;13.55;;;12.15;;
58982;SDS011;44771;49.982;8.560;2023-04-26T14:57:55;13.60;;;12.13;;
58982;SDS011;44771;49.982;8.560;2023-04-26T15:02:58;13.18;;;11.85;;
58982;SDS011;44771;49.982;8.560;2023-04-26T15:08:00;14.25;;;12.90;;
58982;SDS011;44771;49.982;8.560;2023-04-26T15:13:02;12.15;;;11.18;;
58982;SDS011;44771;49.982;8.560;2023-04-26T15:18:05;11.60;;;10.80;;
58982;SDS011;44771;49.982;8.560;2023-04-26T15:23:07;14.05;;;12.43;;
58982;SDS011;44771;49.982;8.560;2023-04-26T15:28:09;13.05;;;12.05;;
58982;SDS011;44771;49.982;8.560;2023-04-26T15:33:12;13.32;;;12.32;;
58982;SDS011;44771;49.982;8.560;2023-04-26T15:38:17;12.88;;;11.63;;
58982;SDS011;44771;49.982;8.560;2023-04-26T15:43:18;12.88;;;12.13;;
58982;SDS011;44771;49.982;8.560;2023-04-26T15:48:22;13.25;;;12.45;;
58982;SDS011;44771;49.982;8.560;2023-04-26T15:53:23;12.65;;;11.73;;
58982;SDS011;44771;49.982;8.560;2023-04-26T15:58:25;14.70;;;11.93;;
58982;SDS011;44771;49.982;8.560;2023-04-26T16:03:30;15.30;;;12.02;;
58982;SDS011;44771;49.982;8.560;2023-04-26T16:08:34;13.50;;;12.70;;
58982;SDS011;44771;49.982;8.560;2023-04-26T16:13:41;11.82;;;10.93;;
58982;SDS011;44771;49.982;8.560;2023-04-26T16:18:47;12.00;;;11.17;;
58982;SDS011;44771;49.982;8.560;2023-04-26T16:23:51;13.48;;;11.12;;
58982;SDS011;44771;49.982;8.560;2023-04-26T16:28:53;12.40;;;11.40;;
58982;SDS011;44771;49.982;8.560;2023-04-26T16:33:56;12.98;;;11.88;;
58982;SDS011;44771;49.982;8.560;2023-04-26T16:38:58;13.02;;;11.90;;
58982;SDS011;44771;49.982;8.560;2023-04-26T16:44:00;13.40;;;12.10;;
58982;SDS011;44771;49.982;8.560;2023-04-26T16:49:03;13.82;;;12.63;;
58982;SDS011;44771;49.982;8.560;2023-04-26T16:54:05;13.95;;;12.68;;
58982;SDS011;44771;49.982;8.560;2023-04-26T16:59:07;12.82;;;11.93;;
58982;SDS011;44771;49.982;8.560;2023-04-26T17:04:10;12.30;;;11.38;;
58982;SDS011;44771;49.982;8.560;2023-04-26T17:09:13;13.40;;;12.27;;
58982;SDS011;44771;49.982;8.560;2023-04-26T17:14:15;12.35;;;11.55;;
58982;SDS011;44771;49.982;8.560;2023-04-26T17:19:19;15.10;;;11.90;;
58982;SDS011;44771;49.982;8.560;2023-04-26T17:24:23;14.13;;;12.20;;
58982;SDS011;44771;49.982;8.560;2023-04-26T17:29:25;13.13;;;12.13;;
58982;SDS011;44771;49.982;8.560;2023-04-26T17:34:30;12.27;;;11.43;;
58982;SDS011;44771;49.982;8.560;2023-04-26T17:39:32;13.07;;;12.27;;
58982;SDS011;44771;49.982;8.560;2023-04-26T17:44:34;13.85;;;11.77;;
58982;SDS011;44771;49.982;8.560;2023-04-26T17:49:37;13.13;;;11.93;;
58982;SDS011;44771;49.982;8.560;2023-04-26T17:54:57;13.23;;;12.18;;
58982;SDS011;44771;49.982;8.560;2023-04-26T17:59:59;12.65;;;11.95;;
58982;SDS011;44771;49.982;8.560;2023-04-26T18:05:05;13.95;;;12.90;;
58982;SDS011;44771;49.982;8.560;2023-04-26T18:10:10;12.55;;;11.65;;
58982;SDS011;44771;49.982;8.560;2023-04-26T18:15:12;18.00;;;12.23;;
58982;SDS011;44771;49.982;8.560;2023-04-26T18:20:15;14.00;;;12.82;;
58982;SDS011;44771;49.982;8.560;2023-04-26T18:25:17;15.10;;;14.00;;
58982;SDS011;44771;49.982;8.560;2023-04-26T18:30:19;13.98;;;12.73;;
58982;SDS011;44771;49.982;8.560;2023-04-26T18:35:22;14.85;;;13.65;;
58982;SDS011;44771;49.982;8.560;2023-04-26T18:40:24;13.90;;;12.50;;
58982;SDS011;44771;49.982;8.560;2023-04-26T18:45:26;14.87;;;13.85;;
58982;SDS011;44771;49.982;8.560;2023-04-26T18:50:29;14.80;;;13.65;;
58982;SDS011;44771;49.982;8.560;2023-04-26T18:55:31;13.73;;;12.93;;
58982;SDS011;44771;49.982;8.560;2023-04-26T19:00:32;15.77;;;14.27;;
58982;SDS011;44771;49.982;8.560;2023-04-26T19:05:35;14.68;;;13.57;;
58982;SDS011;44771;49.982;8.560;2023-04-26T19:10:41;14.70;;;13.35;;
58982;SDS011;44771;49.982;8.560;2023-04-26T19:15:42;16.23;;;13.90;;
58982;SDS011;44771;49.982;8.560;2023-04-26T19:20:48;15.07;;;13.40;;
58982;SDS011;44771;49.982;8.560;2023-04-26T19:25:50;14.23;;;12.93;;
58982;SDS011;44771;49.982;8.560;2023-04-26T19:30:52;14.77;;;13.52;;
58982;SDS011;44771;49.982;8.560;2023-04-26T19:35:55;14.70;;;13.60;;
58982;SDS011;44771;49.982;8.560;2023-04-26T19:40:57;14.38;;;13.15;;
58982;SDS011;44771;49.982;8.560;2023-04-26T19:46:00;15.05;;;13.52;;
58982;SDS011;44771;49.982;8.560;2023-04-26T19:51:03;14.98;;;13.90;;
58982;SDS011;44771;49.982;8.560;2023-04-26T19:56:13;13.88;;;12.80;;
58982;SDS011;44771;49.982;8.560;2023-04-26T20:01:15;13.90;;;12.70;;
58982;SDS011;44771;49.982;8.560;2023-04-26T20:06:18;15.35;;;14.25;;
58982;SDS011;44771;49.982;8.560;2023-04-26T20:11:20;14.77;;;13.75;;
58982;SDS011;44771;49.982;8.560;2023-04-26T20:16:21;16.23;;;15.02;;
58982;SDS011;44771;49.982;8.560;2023-04-26T20:21:25;14.75;;;13.65;;
58982;SDS011;44771;49.982;8.560;2023-04-26T20:26:29;16.52;;;15.20;;
58982;SDS011;44771;49.982;8.560;2023-04-26T20:31:30;14.87;;;13.73;;
58982;SDS011;44771;49.982;8.560;2023-04-26T20:36:33;14.90;;;13.90;;
58982;SDS011;44771;49.982;8.560;2023-04-26T20:41:35;16.80;;;15.27;;
58982;SDS011;44771;49.982;8.560;2023-04-26T20:46:37;15.75;;;13.90;;
58982;SDS011;44771;49.982;8.560;2023-04-26T20:51:40;16.05;;;14.95;;
58982;SDS011;44771;49.982;8.560;2023-04-26T20:56:42;18.15;;;16.40;;
58982;SDS011;44771;49.982;8.560;2023-04-26T21:01:44;18.17;;;16.48;;
58982;SDS011;44771;49.982;8.560;2023-04-26T21:06:47;17.55;;;16.10;;
58982;SDS011;44771;49.982;8.560;2023-04-26T21:11:48;16.80;;;14.93;;
58982;SDS011;44771;49.982;8.560;2023-04-26T21:16:50;17.10;;;15.32;;
58982;SDS011;44771;49.982;8.560;2023-04-26T21:21:53;16.95;;;15.65;;
58982;SDS011;44771;49.982;8.560;2023-04-26T21:26:55;17.83;;;16.25;;
58982;SDS011;44771;49.982;8.560;2023-04-26T21:31:57;16.98;;;15.63;;
58982;SDS011;44771;49.982;8.560;2023-04-26T21:37:03;21.40;;;19.12;;
58982;SDS011;44771;49.982;8.560;2023-04-26T21:42:04;17.65;;;16.25;;
58982;SDS011;44771;49.982;8.560;2023-04-26T21:47:06;15.88;;;14.75;;
58982;SDS011;44771;49.982;8.560;2023-04-26T21:52:10;16.12;;;14.87;;
58982;SDS011;44771;49.982;8.560;2023-04-26T21:57:11;17.23;;;16.05;;
58982;SDS011;44771;49.982;8.560;2023-04-26T22:02:13;17.12;;;15.93;;
58982;SDS011;44771;49.982;8.560;2023-04-26T22:07:16;16.65;;;15.05;;
58982;SDS011;44771;49.982;8.560;2023-04-26T22:12:18;16.70;;;15.13;;
58982;SDS011;44771;49.982;8.560;2023-04-26T22:17:20;17.98;;;16.23;;
58982;SDS011;44771;49.982;8.560;2023-04-26T22:22:23;19.10;;;17.35;;
58982;SDS011;44771;49.982;8.560;2023-04-26T22:27:25;17.95;;;16.25;;
58982;SDS011;44771;49.982;8.560;2023-04-26T22:32:27;17.48;;;16.20;;
58982;SDS011;44771;49.982;8.560;2023-04-26T22:37:30;16.85;;;15.60;;
58982;SDS011;44771;49.982;8.560;2023-04-26T22:42:31;17.95;;;16.60;;
58982;SDS011;44771;49.982;8.560;2023-04-26T22:47:33;16.77;;;15.30;;
58982;SDS011;44771;49.982;8.560;2023-04-26T22:52:36;17.83;;;16.20;;
58982;SDS011;44771;49.982;8.560;2023-04-26T22:57:38;19.17;;;17.48;;
58982;SDS011;44771;49.982;8.560;2023-04-26T23:02:40;16.77;;;15.30;;
58982;SDS011;44771;49.982;8.560;2023-04-26T23:07:43;16.77;;;15.38;;
58982;SDS011;44771;49.982;8.560;2023-04-26T23:12:48;18.87;;;17.05;;
58982;SDS011;44771;49.982;8.560;2023-04-26T23:17:50;18.50;;;16.73;;
58982;SDS011;44771;49.982;8.560;2023-04-26T23:22:53;17.20;;;15.70;;
58982;SDS011;44771;49.982;8.560;2023-04-26T23:27:55;18.98;;;17.00;;
58982;SDS011;44771;49.982;8.560;2023-04-26T23:32:56;18.48;;;16.70;;
58982;SDS011;44771;49.982;8.560;2023-04-26T23:38:00;18.30;;;16.70;;
58982;SDS011;44771;49.982;8.560;2023-04-26T23:43:01;18.27;;;16.55;;
58982;SDS011;44771;49.982;8.560;2023-04-26T23:48:03;20.20;;;17.55;;
58982;SDS011;44771;49.982;8.560;2023-04-26T23:53:07;18.70;;;17.25;;
58982;SDS011;44771;49.982;8.560;2023-04-26T23:58:08;18.48;;;16.62;;
